sensor_id;sensor_type;location;lat;lon;timestamp;temperature;humidity
57108;DHT22;42987;52.916;6.542;2023-11-21T00:00:34;9.10;99.90
57108;DHT22;42987;52.916;6.542;2023-11-21T00:02:59;9.20;99.90
57108;DHT22;42987;52.916;6.542;2023-11-21T00:05:25;9.20;99.90
57108;DHT22;42987;52.916;6.542;2023-11-21T00:07:51;9.20;99.90
57108;DHT22;42987;52.916;6.542;2023-11-21T00:10:17;9.20;99.90
57108;DHT22;42987;52.916;6.542;2023-11-21T00:12:43;9.20;99.90
57108;DHT22;42987;52.916;6.542;2023-11-21T00:15:09;9.20;99.90
57108;DHT22;42987;52.916;6.542;2023-11-21T00:17:38;9.20;99.90
57108;DHT22;42987;52.916;6.542;2023-11-21T00:20:08;9.20;99.90
57108;DHT22;42987;52.916;6.542;2023-11-21T00:22:38;9.20;99.90
57108;DHT22;42987;52.916;6.542;2023-11-21T00:25:04;9.20;99.90
57108;DHT22;42987;52.916;6.542;2023-11-21T00:27:30;9.20;99.90
57108;DHT22;42987;52.916;6.542;2023-11-21T00:29:56;9.20;99.90
57108;DHT22;42987;52.916;6.542;2023-11-21T00:32:22;9.20;99.90
57108;DHT22;42987;52.916;6.542;2023-11-21T00:34:50;9.20;99.90
57108;DHT22;42987;52.916;6.542;2023-11-21T00:37:16;9.30;99.90
57108;DHT22;42987;52.916;6.542;2023-11-21T00:39:42;9.20;99.90
57108;DHT22;42987;52.916;6.542;2023-11-21T00:42:08;9.20;99.90
57108;DHT22;42987;52.916;6.542;2023-11-21T00:44:34;9.20;99.90
57108;DHT22;42987;52.916;6.542;2023-11-21T00:47:03;9.20;99.90
57108;DHT22;42987;52.916;6.542;2023-11-21T00:49:32;9.20;99.90
57108;DHT22;42987;52.916;6.542;2023-11-21T00:51:57;9.20;99.90
57108;DHT22;42987;52.916;6.542;2023-11-21T00:54:23;9.10;99.90
57108;DHT22;42987;52.916;6.542;2023-11-21T00:56:49;9.10;99.90
57108;DHT22;42987;52.916;6.542;2023-11-21T00:59:15;9.10;99.90
57108;DHT22;42987;52.916;6.542;2023-11-21T01:01:41;9.20;99.90
57108;DHT22;42987;52.916;6.542;2023-11-21T01:04:06;9.10;99.90
57108;DHT22;42987;52.916;6.542;2023-11-21T01:06:33;9.20;99.90
57108;DHT22;42987;52.916;6.542;2023-11-21T01:08:59;9.20;99.90
57108;DHT22;42987;52.916;6.542;2023-11-21T01:11:24;9.20;99.90
57108;DHT22;42987;52.916;6.542;2023-11-21T01:13:50;9.20;99.90
57108;DHT22;42987;52.916;6.542;2023-11-21T01:16:16;9.20;99.90
57108;DHT22;42987;52.916;6.542;2023-11-21T01:18:41;9.10;99.90
57108;DHT22;42987;52.916;6.542;2023-11-21T01:21:07;9.10;99.90
57108;DHT22;42987;52.916;6.542;2023-11-21T01:23:34;9.10;99.90
57108;DHT22;42987;52.916;6.542;2023-11-21T01:26:00;9.10;99.90
57108;DHT22;42987;52.916;6.542;2023-11-21T01:28:26;9.10;99.90
57108;DHT22;42987;52.916;6.542;2023-11-21T01:30:52;9.10;99.90
57108;DHT22;42987;52.916;6.542;2023-11-21T01:33:24;9.10;99.90
57108;DHT22;42987;52.916;6.542;2023-11-21T01:35:50;9.10;99.90
57108;DHT22;42987;52.916;6.542;2023-11-21T01:38:18;9.10;99.90
57108;DHT22;42987;52.916;6.542;2023-11-21T01:40:44;9.10;99.90
57108;DHT22;42987;52.916;6.542;2023-11-21T01:43:10;9.10;99.90
57108;DHT22;42987;52.916;6.542;2023-11-21T01:45:36;9.10;99.90
57108;DHT22;42987;52.916;6.542;2023-11-21T01:48:02;9.10;99.90
57108;DHT22;42987;52.916;6.542;2023-11-21T01:50:28;9.10;99.90
57108;DHT22;42987;52.916;6.542;2023-11-21T01:52:55;9.20;99.90
57108;DHT22;42987;52.916;6.542;2023-11-21T01:55:21;9.20;99.90
57108;DHT22;42987;52.916;6.542;2023-11-21T01:57:47;9.20;99.90
57108;DHT22;42987;52.916;6.542;2023-11-21T02:00:13;9.20;99.90
57108;DHT22;42987;52.916;6.542;2023-11-21T02:02:46;9.20;99.90
57108;DHT22;42987;52.916;6.542;2023-11-21T02:05:14;9.20;99.90
57108;DHT22;42987;52.916;6.542;2023-11-21T02:07:43;9.20;99.90
57108;DHT22;42987;52.916;6.542;2023-11-21T02:10:10;9.20;99.90
57108;DHT22;42987;52.916;6.542;2023-11-21T02:12:44;9.20;99.90
57108;DHT22;42987;52.916;6.542;2023-11-21T02:15:13;9.20;99.90
57108;DHT22;42987;52.916;6.542;2023-11-21T02:17:52;9.20;99.90
57108;DHT22;42987;52.916;6.542;2023-11-21T02:20:21;9.20;99.90
57108;DHT22;42987;52.916;6.542;2023-11-21T02:22:56;9.20;99.90
57108;DHT22;42987;52.916;6.542;2023-11-21T02:25:31;9.20;99.90
57108;DHT22;42987;52.916;6.542;2023-11-21T02:27:59;9.20;99.90
57108;DHT22;42987;52.916;6.542;2023-11-21T02:30:25;9.20;99.90
57108;DHT22;42987;52.916;6.542;2023-11-21T02:32:51;9.20;99.90
57108;DHT22;42987;52.916;6.542;2023-11-21T02:35:23;9.20;99.90
57108;DHT22;42987;52.916;6.542;2023-11-21T02:37:49;9.20;99.90
57108;DHT22;42987;52.916;6.542;2023-11-21T02:40:15;9.20;99.90
57108;DHT22;42987;52.916;6.542;2023-11-21T02:42:49;9.20;99.90
57108;DHT22;42987;52.916;6.542;2023-11-21T02:45:19;9.20;99.90
57108;DHT22;42987;52.916;6.542;2023-11-21T02:47:46;9.20;99.90
57108;DHT22;42987;52.916;6.542;2023-11-21T02:50:12;9.20;99.90
57108;DHT22;42987;52.916;6.542;2023-11-21T02:52:38;9.20;99.90
57108;DHT22;42987;52.916;6.542;2023-11-21T02:55:06;9.20;99.90
57108;DHT22;42987;52.916;6.542;2023-11-21T02:57:33;9.30;99.90
57108;DHT22;42987;52.916;6.542;2023-11-21T02:59:59;9.20;99.90
57108;DHT22;42987;52.916;6.542;2023-11-21T03:02:25;9.30;99.90
57108;DHT22;42987;52.916;6.542;2023-11-21T03:04:51;9.30;99.90
57108;DHT22;42987;52.916;6.542;2023-11-21T03:07:18;9.30;99.90
57108;DHT22;42987;52.916;6.542;2023-11-21T03:09:49;9.20;99.90
57108;DHT22;42987;52.916;6.542;2023-11-21T03:12:15;9.30;99.90
57108;DHT22;42987;52.916;6.542;2023-11-21T03:14:41;9.30;99.90
57108;DHT22;42987;52.916;6.542;2023-11-21T03:17:07;9.30;99.90
57108;DHT22;42987;52.916;6.542;2023-11-21T03:19:33;9.30;99.90
57108;DHT22;42987;52.916;6.542;2023-11-21T03:21:59;9.30;99.90
57108;DHT22;42987;52.916;6.542;2023-11-21T03:24:25;9.30;99.90
57108;DHT22;42987;52.916;6.542;2023-11-21T03:26:55;9.40;99.90
57108;DHT22;42987;52.916;6.542;2023-11-21T03:29:21;9.30;99.90
57108;DHT22;42987;52.916;6.542;2023-11-21T03:31:46;9.30;99.90
57108;DHT22;42987;52.916;6.542;2023-11-21T03:34:22;9.30;99.90
57108;DHT22;42987;52.916;6.542;2023-11-21T03:36:48;9.30;99.90
57108;DHT22;42987;52.916;6.542;2023-11-21T03:39:14;9.30;99.90
57108;DHT22;42987;52.916;6.542;2023-11-21T03:41:40;9.30;99.90
57108;DHT22;42987;52.916;6.542;2023-11-21T03:44:05;9.30;99.90
57108;DHT22;42987;52.916;6.542;2023-11-21T03:46:31;9.30;99.90
57108;DHT22;42987;52.916;6.542;2023-11-21T03:48:57;9.30;99.90
57108;DHT22;42987;52.916;6.542;2023-11-21T03:51:22;9.30;99.90
57108;DHT22;42987;52.916;6.542;2023-11-21T03:53:48;9.30;99.90
57108;DHT22;42987;52.916;6.542;2023-11-21T03:56:14;9.40;99.90
57108;DHT22;42987;52.916;6.542;2023-11-21T03:58:40;9.30;99.90
57108;DHT22;42987;52.916;6.542;2023-11-21T04:01:06;9.30;99.90
57108;DHT22;42987;52.916;6.542;2023-11-21T04:03:32;9.30;99.90
57108;DHT22;42987;52.916;6.542;2023-11-21T04:05:58;9.30;99.90
57108;DHT22;42987;52.916;6.542;2023-11-21T04:08:23;9.30;99.90
57108;DHT22;42987;52.916;6.542;2023-11-21T04:10:50;9.30;99.90
57108;DHT22;42987;52.916;6.542;2023-11-21T04:13:16;9.30;99.90
57108;DHT22;42987;52.916;6.542;2023-11-21T04:15:42;9.30;99.90
57108;DHT22;42987;52.916;6.542;2023-11-21T04:18:07;9.30;99.90
57108;DHT22;42987;52.916;6.542;2023-11-21T04:20:33;9.30;99.90
57108;DHT22;42987;52.916;6.542;2023-11-21T04:22:59;9.30;99.90
57108;DHT22;42987;52.916;6.542;2023-11-21T04:25:25;9.30;99.90
57108;DHT22;42987;52.916;6.542;2023-11-21T04:27:54;9.30;99.90
57108;DHT22;42987;52.916;6.542;2023-11-21T04:30:20;9.30;99.90
57108;DHT22;42987;52.916;6.542;2023-11-21T04:32:46;9.30;99.90
57108;DHT22;42987;52.916;6.542;2023-11-21T04:35:12;9.30;99.90
57108;DHT22;42987;52.916;6.542;2023-11-21T04:37:37;9.30;99.90
57108;DHT22;42987;52.916;6.542;2023-11-21T04:40:04;9.30;99.90
57108;DHT22;42987;52.916;6.542;2023-11-21T04:42:36;9.30;99.90
57108;DHT22;42987;52.916;6.542;2023-11-21T04:45:05;9.30;99.90
57108;DHT22;42987;52.916;6.542;2023-11-21T04:47:35;9.30;99.90
57108;DHT22;42987;52.916;6.542;2023-11-21T04:50:01;9.30;99.90
57108;DHT22;42987;52.916;6.542;2023-11-21T04:52:27;9.30;99.90
57108;DHT22;42987;52.916;6.542;2023-11-21T04:54:53;9.30;99.90
57108;DHT22;42987;52.916;6.542;2023-11-21T04:57:20;9.30;99.90
57108;DHT22;42987;52.916;6.542;2023-11-21T04:59:48;9.30;99.90
57108;DHT22;42987;52.916;6.542;2023-11-21T05:02:14;9.30;99.90
57108;DHT22;42987;52.916;6.542;2023-11-21T05:04:43;9.30;99.90
57108;DHT22;42987;52.916;6.542;2023-11-21T05:07:08;9.30;99.90
57108;DHT22;42987;52.916;6.542;2023-11-21T05:09:34;9.30;99.90
57108;DHT22;42987;52.916;6.542;2023-11-21T05:12:01;9.30;99.90
57108;DHT22;42987;52.916;6.542;2023-11-21T05:14:30;9.30;99.90
57108;DHT22;42987;52.916;6.542;2023-11-21T05:16:56;9.30;99.90
57108;DHT22;42987;52.916;6.542;2023-11-21T05:19:21;9.20;99.90
57108;DHT22;42987;52.916;6.542;2023-11-21T05:21:48;9.20;99.90
57108;DHT22;42987;52.916;6.542;2023-11-21T05:24:13;9.20;99.90
57108;DHT22;42987;52.916;6.542;2023-11-21T05:26:39;9.30;99.90
57108;DHT22;42987;52.916;6.542;2023-11-21T05:29:05;9.20;99.90
57108;DHT22;42987;52.916;6.542;2023-11-21T05:31:31;9.20;99.90
57108;DHT22;42987;52.916;6.542;2023-11-21T05:33:57;9.30;99.90
57108;DHT22;42987;52.916;6.542;2023-11-21T05:36:22;9.30;99.90
57108;DHT22;42987;52.916;6.542;2023-11-21T05:38:48;9.30;99.90
57108;DHT22;42987;52.916;6.542;2023-11-21T05:41:15;9.30;99.90
57108;DHT22;42987;52.916;6.542;2023-11-21T05:43:41;9.30;99.90
57108;DHT22;42987;52.916;6.542;2023-11-21T05:46:06;9.30;99.90
57108;DHT22;42987;52.916;6.542;2023-11-21T05:48:33;9.30;99.90
57108;DHT22;42987;52.916;6.542;2023-11-21T05:50:58;9.30;99.90
57108;DHT22;42987;52.916;6.542;2023-11-21T05:53:24;9.30;99.90
57108;DHT22;42987;52.916;6.542;2023-11-21T05:55:50;9.30;99.90
57108;DHT22;42987;52.916;6.542;2023-11-21T05:58:16;9.30;99.90
57108;DHT22;42987;52.916;6.542;2023-11-21T06:00:42;9.30;99.90
57108;DHT22;42987;52.916;6.542;2023-11-21T06:03:08;9.30;99.90
57108;DHT22;42987;52.916;6.542;2023-11-21T06:05:34;9.30;99.90
57108;DHT22;42987;52.916;6.542;2023-11-21T06:07:59;9.30;99.90
57108;DHT22;42987;52.916;6.542;2023-11-21T06:10:26;9.30;99.90
57108;DHT22;42987;52.916;6.542;2023-11-21T06:12:54;9.30;99.90
57108;DHT22;42987;52.916;6.542;2023-11-21T06:15:20;9.30;99.90
57108;DHT22;42987;52.916;6.542;2023-11-21T06:17:47;9.30;99.90
57108;DHT22;42987;52.916;6.542;2023-11-21T06:20:18;9.30;99.90
57108;DHT22;42987;52.916;6.542;2023-11-21T06:22:45;9.30;99.90
57108;DHT22;42987;52.916;6.542;2023-11-21T06:25:12;9.30;99.90
57108;DHT22;42987;52.916;6.542;2023-11-21T06:27:43;9.30;99.90
57108;DHT22;42987;52.916;6.542;2023-11-21T06:30:13;9.30;99.90
57108;DHT22;42987;52.916;6.542;2023-11-21T06:32:41;9.30;99.90
57108;DHT22;42987;52.916;6.542;2023-11-21T06:35:08;9.40;99.90
57108;DHT22;42987;52.916;6.542;2023-11-21T06:37:37;9.30;99.90
57108;DHT22;42987;52.916;6.542;2023-11-21T06:40:03;9.30;99.90
57108;DHT22;42987;52.916;6.542;2023-11-21T06:42:32;9.30;99.90
57108;DHT22;42987;52.916;6.542;2023-11-21T06:44:59;9.30;99.90
57108;DHT22;42987;52.916;6.542;2023-11-21T06:47:25;9.30;99.90
57108;DHT22;42987;52.916;6.542;2023-11-21T06:49:52;9.30;99.90
57108;DHT22;42987;52.916;6.542;2023-11-21T06:52:19;9.30;99.90
57108;DHT22;42987;52.916;6.542;2023-11-21T06:54:45;9.30;99.90
57108;DHT22;42987;52.916;6.542;2023-11-21T06:57:11;9.30;99.90
57108;DHT22;42987;52.916;6.542;2023-11-21T06:59:37;9.30;99.90
57108;DHT22;42987;52.916;6.542;2023-11-21T07:02:03;9.30;99.90
57108;DHT22;42987;52.916;6.542;2023-11-21T07:04:32;9.30;99.90
57108;DHT22;42987;52.916;6.542;2023-11-21T07:06:58;9.30;99.90
57108;DHT22;42987;52.916;6.542;2023-11-21T07:09:27;9.30;99.90
57108;DHT22;42987;52.916;6.542;2023-11-21T07:11:53;9.30;99.90
57108;DHT22;42987;52.916;6.542;2023-11-21T07:14:19;9.30;99.90
57108;DHT22;42987;52.916;6.542;2023-11-21T07:16:46;9.30;99.90
57108;DHT22;42987;52.916;6.542;2023-11-21T07:19:12;9.30;99.90
57108;DHT22;42987;52.916;6.542;2023-11-21T07:21:39;9.30;99.90
57108;DHT22;42987;52.916;6.542;2023-11-21T07:24:05;9.30;99.90
57108;DHT22;42987;52.916;6.542;2023-11-21T07:26:32;9.30;99.90
57108;DHT22;42987;52.916;6.542;2023-11-21T07:28:59;9.30;99.90
57108;DHT22;42987;52.916;6.542;2023-11-21T07:31:25;9.20;99.90
57108;DHT22;42987;52.916;6.542;2023-11-21T07:33:51;9.20;99.90
57108;DHT22;42987;52.916;6.542;2023-11-21T07:36:19;9.20;99.90
57108;DHT22;42987;52.916;6.542;2023-11-21T07:38:46;9.30;99.90
57108;DHT22;42987;52.916;6.542;2023-11-21T07:41:12;9.20;99.90
57108;DHT22;42987;52.916;6.542;2023-11-21T07:43:41;9.30;99.90
57108;DHT22;42987;52.916;6.542;2023-11-21T07:46:07;9.20;99.90
57108;DHT22;42987;52.916;6.542;2023-11-21T07:48:34;9.30;99.90
57108;DHT22;42987;52.916;6.542;2023-11-21T07:51:02;9.20;99.90
57108;DHT22;42987;52.916;6.542;2023-11-21T07:53:29;9.30;99.90
57108;DHT22;42987;52.916;6.542;2023-11-21T07:56:09;9.30;99.90
57108;DHT22;42987;52.916;6.542;2023-11-21T07:58:35;9.30;99.90
57108;DHT22;42987;52.916;6.542;2023-11-21T08:01:02;9.20;99.90
57108;DHT22;42987;52.916;6.542;2023-11-21T08:03:29;9.30;99.90
57108;DHT22;42987;52.916;6.542;2023-11-21T08:05:58;9.30;99.90
57108;DHT22;42987;52.916;6.542;2023-11-21T08:08:25;9.30;99.90
57108;DHT22;42987;52.916;6.542;2023-11-21T08:10:55;9.30;99.90
57108;DHT22;42987;52.916;6.542;2023-11-21T08:13:30;9.30;99.90
57108;DHT22;42987;52.916;6.542;2023-11-21T08:15:58;9.30;99.90
57108;DHT22;42987;52.916;6.542;2023-11-21T08:18:30;9.30;99.90
57108;DHT22;42987;52.916;6.542;2023-11-21T08:20:56;9.30;99.90
57108;DHT22;42987;52.916;6.542;2023-11-21T08:23:22;9.30;99.90
57108;DHT22;42987;52.916;6.542;2023-11-21T08:25:54;9.30;99.90
57108;DHT22;42987;52.916;6.542;2023-11-21T08:28:21;9.30;99.90
57108;DHT22;42987;52.916;6.542;2023-11-21T08:30:52;9.30;99.90
57108;DHT22;42987;52.916;6.542;2023-11-21T08:33:18;9.30;99.90
57108;DHT22;42987;52.916;6.542;2023-11-21T08:35:44;9.30;99.90
57108;DHT22;42987;52.916;6.542;2023-11-21T08:38:11;9.20;99.90
57108;DHT22;42987;52.916;6.542;2023-11-21T08:40:37;9.20;99.90
57108;DHT22;42987;52.916;6.542;2023-11-21T08:43:03;9.20;99.90
57108;DHT22;42987;52.916;6.542;2023-11-21T08:45:32;9.10;99.90
57108;DHT22;42987;52.916;6.542;2023-11-21T08:48:00;9.10;99.90
57108;DHT22;42987;52.916;6.542;2023-11-21T08:50:25;9.10;99.90
57108;DHT22;42987;52.916;6.542;2023-11-21T08:52:52;9.10;99.90
57108;DHT22;42987;52.916;6.542;2023-11-21T08:55:17;9.10;99.90
57108;DHT22;42987;52.916;6.542;2023-11-21T08:57:45;9.10;99.90
57108;DHT22;42987;52.916;6.542;2023-11-21T09:00:14;9.10;99.90
57108;DHT22;42987;52.916;6.542;2023-11-21T09:02:43;9.10;99.90
57108;DHT22;42987;52.916;6.542;2023-11-21T09:05:10;9.10;99.90
57108;DHT22;42987;52.916;6.542;2023-11-21T09:07:37;9.00;99.90
57108;DHT22;42987;52.916;6.542;2023-11-21T09:10:04;9.00;99.90
57108;DHT22;42987;52.916;6.542;2023-11-21T09:12:33;8.90;99.90
57108;DHT22;42987;52.916;6.542;2023-11-21T09:15:02;8.90;99.90
57108;DHT22;42987;52.916;6.542;2023-11-21T09:17:28;8.90;99.90
57108;DHT22;42987;52.916;6.542;2023-11-21T09:19:53;8.80;99.90
57108;DHT22;42987;52.916;6.542;2023-11-21T09:22:19;8.80;99.90
57108;DHT22;42987;52.916;6.542;2023-11-21T09:24:45;8.80;99.90
57108;DHT22;42987;52.916;6.542;2023-11-21T09:27:11;8.80;99.90
57108;DHT22;42987;52.916;6.542;2023-11-21T09:29:37;8.80;99.90
57108;DHT22;42987;52.916;6.542;2023-11-21T09:32:05;8.80;99.90
57108;DHT22;42987;52.916;6.542;2023-11-21T09:34:33;8.80;99.90
57108;DHT22;42987;52.916;6.542;2023-11-21T09:37:04;8.80;99.90
57108;DHT22;42987;52.916;6.542;2023-11-21T09:39:32;8.80;99.90
57108;DHT22;42987;52.916;6.542;2023-11-21T09:42:12;8.80;99.90
57108;DHT22;42987;52.916;6.542;2023-11-21T09:47:25;8.80;99.90
57108;DHT22;42987;52.916;6.542;2023-11-21T09:49:54;8.70;99.90
57108;DHT22;42987;52.916;6.542;2023-11-21T09:52:26;8.70;99.90
57108;DHT22;42987;52.916;6.542;2023-11-21T09:54:55;8.70;99.90
57108;DHT22;42987;52.916;6.542;2023-11-21T09:57:25;8.70;99.90
57108;DHT22;42987;52.916;6.542;2023-11-21T09:59:54;8.70;99.90
57108;DHT22;42987;52.916;6.542;2023-11-21T10:02:27;8.70;99.90
57108;DHT22;42987;52.916;6.542;2023-11-21T10:04:55;8.60;99.90
57108;DHT22;42987;52.916;6.542;2023-11-21T10:07:22;8.60;99.90
57108;DHT22;42987;52.916;6.542;2023-11-21T10:09:48;8.60;99.90
57108;DHT22;42987;52.916;6.542;2023-11-21T10:12:16;8.60;99.90
57108;DHT22;42987;52.916;6.542;2023-11-21T10:14:43;8.60;99.90
57108;DHT22;42987;52.916;6.542;2023-11-21T10:17:14;8.60;99.90
57108;DHT22;42987;52.916;6.542;2023-11-21T10:19:46;8.70;99.90
57108;DHT22;42987;52.916;6.542;2023-11-21T10:22:13;8.70;99.90
57108;DHT22;42987;52.916;6.542;2023-11-21T10:24:40;8.70;99.90
57108;DHT22;42987;52.916;6.542;2023-11-21T10:27:06;8.80;99.90
57108;DHT22;42987;52.916;6.542;2023-11-21T10:29:33;8.80;99.90
57108;DHT22;42987;52.916;6.542;2023-11-21T10:32:04;8.80;99.90
57108;DHT22;42987;52.916;6.542;2023-11-21T10:34:31;8.80;99.90
57108;DHT22;42987;52.916;6.542;2023-11-21T10:36:57;8.80;99.90
57108;DHT22;42987;52.916;6.542;2023-11-21T10:39:24;8.70;99.90
57108;DHT22;42987;52.916;6.542;2023-11-21T10:41:54;8.80;99.90
57108;DHT22;42987;52.916;6.542;2023-11-21T10:44:20;8.70;99.90
57108;DHT22;42987;52.916;6.542;2023-11-21T10:46:54;8.70;99.90
57108;DHT22;42987;52.916;6.542;2023-11-21T10:49:25;8.70;99.90
57108;DHT22;42987;52.916;6.542;2023-11-21T10:51:52;8.60;99.90
57108;DHT22;42987;52.916;6.542;2023-11-21T10:54:23;8.60;99.90
57108;DHT22;42987;52.916;6.542;2023-11-21T10:56:53;8.60;99.90
57108;DHT22;42987;52.916;6.542;2023-11-21T10:59:19;8.60;99.90
57108;DHT22;42987;52.916;6.542;2023-11-21T11:01:47;8.60;99.90
57108;DHT22;42987;52.916;6.542;2023-11-21T11:04:19;8.60;99.90
57108;DHT22;42987;52.916;6.542;2023-11-21T11:06:57;8.60;99.90
57108;DHT22;42987;52.916;6.542;2023-11-21T11:09:23;8.60;99.90
57108;DHT22;42987;52.916;6.542;2023-11-21T11:11:49;8.60;99.90
57108;DHT22;42987;52.916;6.542;2023-11-21T11:14:16;8.60;99.90
57108;DHT22;42987;52.916;6.542;2023-11-21T11:16:45;8.70;99.90
57108;DHT22;42987;52.916;6.542;2023-11-21T11:19:11;8.70;99.90
57108;DHT22;42987;52.916;6.542;2023-11-21T11:35:19;8.80;99.90
57108;DHT22;42987;52.916;6.542;2023-11-21T11:37:48;8.80;99.90
57108;DHT22;42987;52.916;6.542;2023-11-21T11:40:13;8.80;99.90
57108;DHT22;42987;52.916;6.542;2023-11-21T11:42:58;8.80;99.90
57108;DHT22;42987;52.916;6.542;2023-11-21T11:45:34;8.80;99.90
57108;DHT22;42987;52.916;6.542;2023-11-21T11:48:01;8.80;99.90
57108;DHT22;42987;52.916;6.542;2023-11-21T11:50:29;8.80;99.90
57108;DHT22;42987;52.916;6.542;2023-11-21T11:53:11;8.80;99.90
57108;DHT22;42987;52.916;6.542;2023-11-21T11:55:37;8.80;99.90
57108;DHT22;42987;52.916;6.542;2023-11-21T11:58:06;8.80;99.90
57108;DHT22;42987;52.916;6.542;2023-11-21T12:00:35;8.80;99.90
57108;DHT22;42987;52.916;6.542;2023-11-21T12:03:07;8.80;99.90
57108;DHT22;42987;52.916;6.542;2023-11-21T12:05:34;8.80;99.90
57108;DHT22;42987;52.916;6.542;2023-11-21T12:08:12;8.80;99.90
57108;DHT22;42987;52.916;6.542;2023-11-21T12:10:39;8.80;99.90
57108;DHT22;42987;52.916;6.542;2023-11-21T12:13:09;8.80;99.90
57108;DHT22;42987;52.916;6.542;2023-11-21T12:15:36;8.70;99.90
57108;DHT22;42987;52.916;6.542;2023-11-21T12:18:02;8.70;99.90
57108;DHT22;42987;52.916;6.542;2023-11-21T12:20:30;8.60;99.90
57108;DHT22;42987;52.916;6.542;2023-11-21T12:22:58;8.60;99.90
57108;DHT22;42987;52.916;6.542;2023-11-21T12:25:29;8.60;99.90
57108;DHT22;42987;52.916;6.542;2023-11-21T12:28:01;8.60;99.90
57108;DHT22;42987;52.916;6.542;2023-11-21T12:30:32;8.60;99.90
57108;DHT22;42987;52.916;6.542;2023-11-21T12:33:02;8.70;99.90
57108;DHT22;42987;52.916;6.542;2023-11-21T12:35:33;8.70;99.90
57108;DHT22;42987;52.916;6.542;2023-11-21T12:38:03;8.70;99.90
57108;DHT22;42987;52.916;6.542;2023-11-21T12:40:29;8.70;99.90
57108;DHT22;42987;52.916;6.542;2023-11-21T12:42:59;8.70;99.90
57108;DHT22;42987;52.916;6.542;2023-11-21T12:45:28;8.70;99.90
57108;DHT22;42987;52.916;6.542;2023-11-21T12:48:01;8.70;99.90
57108;DHT22;42987;52.916;6.542;2023-11-21T12:50:30;8.60;99.90
57108;DHT22;42987;52.916;6.542;2023-11-21T12:53:07;8.70;99.90
57108;DHT22;42987;52.916;6.542;2023-11-21T12:55:37;8.60;99.90
57108;DHT22;42987;52.916;6.542;2023-11-21T12:58:09;8.60;99.90
57108;DHT22;42987;52.916;6.542;2023-11-21T13:00:38;8.60;99.90
57108;DHT22;42987;52.916;6.542;2023-11-21T13:03:05;8.60;99.90
57108;DHT22;42987;52.916;6.542;2023-11-21T13:05:39;8.60;99.90
57108;DHT22;42987;52.916;6.542;2023-11-21T13:08:07;8.60;99.90
57108;DHT22;42987;52.916;6.542;2023-11-21T13:10:35;8.60;99.90
57108;DHT22;42987;52.916;6.542;2023-11-21T13:13:04;8.60;99.90
57108;DHT22;42987;52.916;6.542;2023-11-21T13:15:31;8.60;99.90
57108;DHT22;42987;52.916;6.542;2023-11-21T13:17:58;8.60;99.90
57108;DHT22;42987;52.916;6.542;2023-11-21T13:20:28;8.60;99.90
57108;DHT22;42987;52.916;6.542;2023-11-21T13:22:56;8.60;99.90
57108;DHT22;42987;52.916;6.542;2023-11-21T13:25:29;8.60;99.90
57108;DHT22;42987;52.916;6.542;2023-11-21T13:27:57;8.60;99.90
57108;DHT22;42987;52.916;6.542;2023-11-21T13:30:23;8.60;99.90
57108;DHT22;42987;52.916;6.542;2023-11-21T13:32:56;8.50;99.90
57108;DHT22;42987;52.916;6.542;2023-11-21T13:35:26;8.60;99.90
57108;DHT22;42987;52.916;6.542;2023-11-21T13:38:08;8.60;99.90
57108;DHT22;42987;52.916;6.542;2023-11-21T13:40:39;8.50;99.90
57108;DHT22;42987;52.916;6.542;2023-11-21T13:43:12;8.60;99.90
57108;DHT22;42987;52.916;6.542;2023-11-21T13:45:40;8.50;99.90
57108;DHT22;42987;52.916;6.542;2023-11-21T13:48:06;8.40;99.90
57108;DHT22;42987;52.916;6.542;2023-11-21T13:50:52;8.40;99.90
57108;DHT22;42987;52.916;6.542;2023-11-21T13:53:23;8.40;99.90
57108;DHT22;42987;52.916;6.542;2023-11-21T13:55:49;8.40;99.90
57108;DHT22;42987;52.916;6.542;2023-11-21T13:58:17;8.40;99.90
57108;DHT22;42987;52.916;6.542;2023-11-21T14:00:58;8.50;99.90
57108;DHT22;42987;52.916;6.542;2023-11-21T14:03:24;8.50;99.90
57108;DHT22;42987;52.916;6.542;2023-11-21T14:05:58;8.60;99.90
57108;DHT22;42987;52.916;6.542;2023-11-21T14:08:26;8.60;99.90
57108;DHT22;42987;52.916;6.542;2023-11-21T14:10:57;8.70;99.90
57108;DHT22;42987;52.916;6.542;2023-11-21T14:13:28;8.70;99.90
57108;DHT22;42987;52.916;6.542;2023-11-21T14:15:54;8.70;99.90
57108;DHT22;42987;52.916;6.542;2023-11-21T14:18:24;8.70;99.90
57108;DHT22;42987;52.916;6.542;2023-11-21T14:20:58;8.60;99.90
57108;DHT22;42987;52.916;6.542;2023-11-21T14:23:24;8.60;99.90
57108;DHT22;42987;52.916;6.542;2023-11-21T14:25:49;8.60;99.90
57108;DHT22;42987;52.916;6.542;2023-11-21T14:28:16;8.50;99.90
57108;DHT22;42987;52.916;6.542;2023-11-21T14:30:42;8.60;99.90
57108;DHT22;42987;52.916;6.542;2023-11-21T14:33:08;8.50;99.90
57108;DHT22;42987;52.916;6.542;2023-11-21T14:35:37;8.50;99.90
57108;DHT22;42987;52.916;6.542;2023-11-21T14:38:03;8.50;99.90
57108;DHT22;42987;52.916;6.542;2023-11-21T14:40:33;8.50;99.90
57108;DHT22;42987;52.916;6.542;2023-11-21T14:43:02;8.40;99.90
57108;DHT22;42987;52.916;6.542;2023-11-21T14:45:34;8.40;99.90
57108;DHT22;42987;52.916;6.542;2023-11-21T14:48:01;8.40;99.90
57108;DHT22;42987;52.916;6.542;2023-11-21T14:50:41;8.40;99.90
57108;DHT22;42987;52.916;6.542;2023-11-21T14:53:11;8.40;99.90
57108;DHT22;42987;52.916;6.542;2023-11-21T14:55:38;8.30;99.90
57108;DHT22;42987;52.916;6.542;2023-11-21T14:58:17;8.30;99.90
57108;DHT22;42987;52.916;6.542;2023-11-21T15:00:54;8.30;99.90
57108;DHT22;42987;52.916;6.542;2023-11-21T15:03:27;8.30;99.90
57108;DHT22;42987;52.916;6.542;2023-11-21T15:05:56;8.30;99.90
57108;DHT22;42987;52.916;6.542;2023-11-21T15:08:22;8.30;99.90
57108;DHT22;42987;52.916;6.542;2023-11-21T15:10:58;8.30;99.90
57108;DHT22;42987;52.916;6.542;2023-11-21T15:13:24;8.30;99.90
57108;DHT22;42987;52.916;6.542;2023-11-21T15:15:53;8.20;99.90
57108;DHT22;42987;52.916;6.542;2023-11-21T15:18:22;8.20;99.90
57108;DHT22;42987;52.916;6.542;2023-11-21T15:20:48;8.20;99.90
57108;DHT22;42987;52.916;6.542;2023-11-21T15:23:13;8.20;99.90
57108;DHT22;42987;52.916;6.542;2023-11-21T15:25:40;8.20;99.90
57108;DHT22;42987;52.916;6.542;2023-11-21T15:28:05;8.20;99.90
57108;DHT22;42987;52.916;6.542;2023-11-21T15:30:31;8.20;99.90
57108;DHT22;42987;52.916;6.542;2023-11-21T15:32:58;8.10;99.90
57108;DHT22;42987;52.916;6.542;2023-11-21T15:35:24;8.10;99.90
57108;DHT22;42987;52.916;6.542;2023-11-21T15:37:52;8.10;99.90
57108;DHT22;42987;52.916;6.542;2023-11-21T15:40:17;8.10;99.90
57108;DHT22;42987;52.916;6.542;2023-11-21T15:42:43;8.10;99.90
57108;DHT22;42987;52.916;6.542;2023-11-21T15:45:10;8.10;99.90
57108;DHT22;42987;52.916;6.542;2023-11-21T15:47:36;8.10;99.90
57108;DHT22;42987;52.916;6.542;2023-11-21T15:50:02;8.10;99.90
57108;DHT22;42987;52.916;6.542;2023-11-21T15:52:29;8.10;99.90
57108;DHT22;42987;52.916;6.542;2023-11-21T15:54:58;8.10;99.90
57108;DHT22;42987;52.916;6.542;2023-11-21T15:57:24;8.00;99.90
57108;DHT22;42987;52.916;6.542;2023-11-21T15:59:50;7.90;99.90
57108;DHT22;42987;52.916;6.542;2023-11-21T16:02:16;8.00;99.90
57108;DHT22;42987;52.916;6.542;2023-11-21T16:04:41;7.90;99.90